Atarfe, Spain
Current Conditions -  °F | °C
As of 3:00 PM on Wednesday 26 Nov 2014 (Local Time) from LEGR Reporting Station
Few Clouds Few Clouds  
Wind Chill: 64°   Ceiling: Unl
Heat Index: 64°   Visibility: 6mi
Dew Point: 45°   Wind: 5mph
Humidity: 49%   Direction: 290°WNW
Pressure: 29.85"   Gusts: NA
Location:  37.22°N, 3.69°W
Report Text: LEGR 261400Z 29004KT 250V350 9999 FEW035 18/07 Q1011
Loading
Personal Weather Stations






























Interactive Weather Map New forecast layout! Learn more

10-Day Weather Forecast

Advertisements
Track Severe Weather on mobile